Time;durP1;ratioP1;P1;durP2;ratioP2;P2;SDS_P1;SDS_P2;PMS_P1;PMS_P2;Temp;Humidity;BMP_temperature;BMP_pressure;BME280_temperature;BME280_humidity;BME280_pressure;Samples;Min_cycle;Max_cycle;Signal;HPM_P1;HPM_P2
2023/05/11 00:01:36;;;;;;;;;;;23.00;57.80;;;;;;1560519;74;1472;-66
2023/05/11 00:03:38;;;;;;;;;;;23.00;57.90;;;;;;1537414;75;700;-70
2023/05/11 00:05:41;;;;;;;;;;;23.00;58.10;;;;;;1562991;74;778;-68
2023/05/11 00:07:42;;;;;;;;;;;23.00;58.40;;;;;;1571852;74;740;-68
2023/05/11 00:09:44;;;;;;;;;;;23.00;58.60;;;;;;1568310;74;1120;-68
2023/05/11 00:11:46;;;;;;;;;;;23.00;58.40;;;;;;1554813;74;720;-68
2023/05/11 00:13:48;;;;;;;;;;;23.00;58.40;;;;;;1550127;74;705;-67
2023/05/11 00:15:50;;;;;;;;;;;23.00;58.30;;;;;;1553468;74;1483;-68
2023/05/11 00:17:52;;;;;;;;;;;23.00;58.10;;;;;;1540346;74;761;-68
2023/05/11 00:19:54;;;;;;;;;;;23.10;58.20;;;;;;1565962;76;1928;-68
2023/05/11 00:21:56;;;;;;;;;;;23.00;57.90;;;;;;1556440;74;751;-70
2023/05/11 00:23:57;;;;;;;;;;;23.10;58.00;;;;;;1557033;76;664;-68
2023/05/11 00:25:59;;;;;;;;;;;23.10;58.30;;;;;;1535231;76;768;-69
2023/05/11 00:28:01;;;;;;;;;;;23.00;58.10;;;;;;1552888;74;756;-69
2023/05/11 00:30:03;;;;;;;;;;;23.00;58.30;;;;;;1565628;74;1436;-68
2023/05/11 00:32:05;;;;;;;;;;;22.90;58.10;;;;;;1561959;74;752;-69
2023/05/11 00:34:07;;;;;;;;;;;23.00;58.20;;;;;;1548718;74;738;-69
2023/05/11 00:36:09;;;;;;;;;;;23.00;58.40;;;;;;1556493;74;687;-69
2023/05/11 00:38:11;;;;;;;;;;;23.00;58.20;;;;;;1562059;74;728;-68
2023/05/11 00:40:13;;;;;;;;;;;23.00;58.30;;;;;;1548706;76;1928;-68
2023/05/11 00:42:15;;;;;;;;;;;23.00;58.20;;;;;;1554839;74;749;-68
2023/05/11 00:44:16;;;;;;;;;;;23.00;58.20;;;;;;1575100;74;1393;-67
2023/05/11 00:46:18;;;;;;;;;;;23.00;58.40;;;;;;1562167;76;726;-67
2023/05/11 00:48:20;;;;;;;;;;;23.00;58.30;;;;;;1565228;74;692;-67
2023/05/11 00:50:22;;;;;;;;;;;23.00;58.40;;;;;;1567724;76;1242;-67
2023/05/11 00:52:24;;;;;;;;;;;23.00;58.60;;;;;;1549115;74;702;-65
2023/05/11 00:54:26;;;;;;;;;;;23.00;58.40;;;;;;1555876;76;734;-67
2023/05/11 00:56:28;;;;;;;;;;;23.00;58.50;;;;;;1551640;74;765;-64
2023/05/11 00:58:30;;;;;;;;;;;23.00;58.40;;;;;;1567680;74;1930;-67
2023/05/11 01:00:32;;;;;;;;;;;23.00;58.40;;;;;;1567593;74;1167;-68
2023/05/11 01:02:34;;;;;;;;;;;23.00;58.50;;;;;;1555485;74;644;-67
2023/05/11 01:04:36;;;;;;;;;;;22.90;58.80;;;;;;1564090;74;703;-67
2023/05/11 01:06:43;;;;;;;;;;;22.90;58.70;;;;;;1573945;74;716;-67
2023/05/11 01:08:56;;;;;;;;;;;22.90;58.70;;;;;;1566960;76;1547;-68
2023/05/11 01:11:06;;;;;;;;;;;23.00;58.60;;;;;;1570043;74;749;-66
2023/05/11 01:13:09;;;;;;;;;;;23.00;58.40;;;;;;1567168;74;1140;-70
2023/05/11 01:15:12;;;;;;;;;;;23.00;58.40;;;;;;1553848;76;1634;-69
2023/05/11 01:17:15;;;;;;;;;;;23.00;58.40;;;;;;1562320;74;685;-69
2023/05/11 01:19:35;;;;;;;;;;;23.00;58.50;;;;;;1561267;74;1926;-68
2023/05/11 01:21:37;;;;;;;;;;;22.90;58.40;;;;;;1557456;74;715;-68
2023/05/11 01:23:46;;;;;;;;;;;23.00;58.20;;;;;;1567566;75;745;-67
2023/05/11 01:25:50;;;;;;;;;;;23.00;58.20;;;;;;1559514;75;1456;-67
2023/05/11 01:27:56;;;;;;;;;;;23.00;58.10;;;;;;1561895;74;1668;-67
2023/05/11 01:30:16;;;;;;;;;;;23.00;58.00;;;;;;1556447;74;1177;-66
2023/05/11 01:32:20;;;;;;;;;;;23.10;58.10;;;;;;1570700;74;752;-69
2023/05/11 01:34:25;;;;;;;;;;;23.10;58.10;;;;;;1558382;74;1455;-67
2023/05/11 01:36:28;;;;;;;;;;;23.10;57.90;;;;;;1569813;74;701;-68
2023/05/11 01:38:32;;;;;;;;;;;23.00;57.70;;;;;;1571567;74;702;-66
2023/05/11 01:40:34;;;;;;;;;;;23.10;57.90;;;;;;1572134;74;1932;-68
2023/05/11 01:42:37;;;;;;;;;;;23.00;57.90;;;;;;1560383;74;740;-68
2023/05/11 01:44:39;;;;;;;;;;;23.10;58.00;;;;;;1564783;74;736;-68
2023/05/11 01:46:41;;;;;;;;;;;23.10;57.80;;;;;;1570918;74;762;-68
2023/05/11 01:48:43;;;;;;;;;;;23.10;57.70;;;;;;1568990;75;687;-67
2023/05/11 01:50:46;;;;;;;;;;;23.10;57.80;;;;;;1566660;74;1240;-66
2023/05/11 01:52:47;;;;;;;;;;;23.10;58.00;;;;;;1580951;74;615;-67
2023/05/11 01:54:49;;;;;;;;;;;23.00;58.00;;;;;;1561961;74;1482;-66
2023/05/11 01:56:51;;;;;;;;;;;23.10;58.40;;;;;;1574128;74;668;-68
2023/05/11 01:58:53;;;;;;;;;;;23.00;58.60;;;;;;1548848;76;1942;-67
2023/05/11 02:00:55;;;;;;;;;;;22.90;58.60;;;;;;1555564;74;1225;-68
2023/05/11 02:02:57;;;;;;;;;;;22.90;58.70;;;;;;1564679;74;728;-66
2023/05/11 02:04:59;;;;;;;;;;;22.90;59.10;;;;;;1566276;74;722;-66
2023/05/11 02:07:01;;;;;;;;;;;22.90;58.80;;;;;;1575969;74;779;-67
2023/05/11 02:09:03;;;;;;;;;;;23.00;58.60;;;;;;1564298;74;1402;-67
2023/05/11 02:11:05;;;;;;;;;;;23.00;58.60;;;;;;1572139;74;640;-66
2023/05/11 02:13:07;;;;;;;;;;;22.90;58.40;;;;;;1564954;76;633;-67
2023/05/11 02:15:09;;;;;;;;;;;23.00;58.30;;;;;;1563531;74;714;-69
2023/05/11 02:17:10;;;;;;;;;;;22.90;58.20;;;;;;1564664;74;763;-66
2023/05/11 02:19:12;;;;;;;;;;;23.00;58.10;;;;;;1564222;74;1934;-67
2023/05/11 02:21:14;;;;;;;;;;;23.00;58.00;;;;;;1573147;74;707;-68
2023/05/11 02:23:16;;;;;;;;;;;23.00;57.90;;;;;;1559080;74;1584;-67
2023/05/11 02:25:18;;;;;;;;;;;23.00;57.80;;;;;;1565727;74;707;-67
2023/05/11 02:27:20;;;;;;;;;;;23.00;57.80;;;;;;1557953;74;745;-67
2023/05/11 02:29:22;;;;;;;;;;;23.00;57.70;;;;;;1565088;74;1149;-67
2023/05/11 02:31:25;;;;;;;;;;;23.10;57.80;;;;;;1569440;74;777;-68
2023/05/11 02:33:30;;;;;;;;;;;23.00;57.60;;;;;;1564742;75;1467;-68
2023/05/11 02:35:33;;;;;;;;;;;23.10;57.80;;;;;;1568057;74;1425;-67
2023/05/11 02:37:35;;;;;;;;;;;23.00;57.60;;;;;;1575085;74;731;-67
2023/05/11 02:39:37;;;;;;;;;;;23.10;57.60;;;;;;1571331;74;1938;-68
2023/05/11 02:41:40;;;;;;;;;;;23.00;57.60;;;;;;1553235;74;664;-68
2023/05/11 02:43:44;;;;;;;;;;;23.10;57.70;;;;;;1564082;74;1534;-69
2023/05/11 02:45:46;;;;;;;;;;;23.10;57.60;;;;;;1559014;74;1417;-67
2023/05/11 02:47:49;;;;;;;;;;;23.10;57.60;;;;;;1563174;74;744;-68
2023/05/11 02:49:53;;;;;;;;;;;23.10;57.70;;;;;;1564941;75;1436;-68
2023/05/11 02:51:54;;;;;;;;;;;23.00;57.60;;;;;;1568431;74;780;-68
2023/05/11 02:53:56;;;;;;;;;;;23.10;57.70;;;;;;1568430;75;739;-65
2023/05/11 02:55:58;;;;;;;;;;;23.10;57.80;;;;;;1560008;74;635;-65
2023/05/11 02:58:00;;;;;;;;;;;23.00;57.60;;;;;;1567742;74;710;-68
2023/05/11 03:00:02;;;;;;;;;;;23.10;57.60;;;;;;1561406;74;1930;-68
2023/05/11 03:02:04;;;;;;;;;;;23.10;57.50;;;;;;1563932;74;697;-69
2023/05/11 03:04:06;;;;;;;;;;;23.10;57.70;;;;;;1563960;74;1440;-67
2023/05/11 03:06:08;;;;;;;;;;;23.10;57.80;;;;;;1556982;74;697;-67
2023/05/11 03:08:10;;;;;;;;;;;23.00;57.70;;;;;;1570274;74;676;-68
2023/05/11 03:10:12;;;;;;;;;;;23.10;58.10;;;;;;1565993;74;1229;-68
2023/05/11 03:12:14;;;;;;;;;;;23.10;57.80;;;;;;1565092;74;654;-66
2023/05/11 03:14:16;;;;;;;;;;;23.10;58.00;;;;;;1568143;74;637;-67
2023/05/11 03:16:17;;;;;;;;;;;23.00;58.20;;;;;;1555453;74;693;-68
2023/05/11 03:18:19;;;;;;;;;;;23.00;58.50;;;;;;1559096;75;1311;-68
2023/05/11 03:20:21;;;;;;;;;;;22.90;58.60;;;;;;1569598;74;1921;-68
2023/05/11 03:22:23;;;;;;;;;;;23.00;58.30;;;;;;1569149;74;765;-69
2023/05/11 03:24:25;;;;;;;;;;;23.00;58.30;;;;;;1560109;75;686;-69
2023/05/11 03:26:28;;;;;;;;;;;23.00;58.10;;;;;;1559062;74;741;-69
2023/05/11 03:28:30;;;;;;;;;;;23.00;58.10;;;;;;1569316;74;647;-69
2023/05/11 03:30:32;;;;;;;;;;;23.00;58.00;;;;;;1563640;74;1181;-67
2023/05/11 03:32:34;;;;;;;;;;;23.00;57.80;;;;;;1562472;74;1446;-68
2023/05/11 03:34:36;;;;;;;;;;;23.00;58.00;;;;;;1553396;74;724;-68
2023/05/11 03:36:38;;;;;;;;;;;23.00;58.30;;;;;;1554128;74;694;-68
2023/05/11 03:38:40;;;;;;;;;;;23.00;58.30;;;;;;1552917;75;713;-68
2023/05/11 03:40:42;;;;;;;;;;;23.00;58.30;;;;;;1562970;74;1929;-68
2023/05/11 03:42:44;;;;;;;;;;;23.00;58.20;;;;;;1567329;74;732;-67
2023/05/11 03:44:46;;;;;;;;;;;23.00;58.10;;;;;;1548574;74;674;-67
2023/05/11 03:46:49;;;;;;;;;;;23.00;58.10;;;;;;1580174;74;1476;-67
2023/05/11 03:48:51;;;;;;;;;;;23.00;57.90;;;;;;1555327;75;657;-67
2023/05/11 03:50:53;;;;;;;;;;;23.00;58.10;;;;;;1563939;74;1092;-69
2023/05/11 03:52:55;;;;;;;;;;;23.00;58.00;;;;;;1560577;76;611;-68
2023/05/11 03:54:57;;;;;;;;;;;23.00;58.10;;;;;;1555019;76;672;-68
2023/05/11 03:56:58;;;;;;;;;;;23.00;58.10;;;;;;1562158;76;692;-67
2023/05/11 03:59:00;;;;;;;;;;;23.00;58.00;;;;;;1550582;74;1152;-68
2023/05/11 04:01:02;;;;;;;;;;;23.00;58.00;;;;;;1569173;74;1934;-68
2023/05/11 04:03:05;;;;;;;;;;;23.00;58.10;;;;;;1561342;74;783;-67
2023/05/11 04:05:07;;;;;;;;;;;23.00;57.90;;;;;;1558753;75;698;-68
2023/05/11 04:07:09;;;;;;;;;;;23.00;58.30;;;;;;1562742;74;753;-68
2023/05/11 04:09:12;;;;;;;;;;;23.00;58.30;;;;;;1572830;74;1228;-69
2023/05/11 04:11:13;;;;;;;;;;;22.90;58.30;;;;;;1563780;74;727;-67
2023/05/11 04:13:15;;;;;;;;;;;23.00;58.40;;;;;;1560183;76;706;-68
2023/05/11 04:15:17;;;;;;;;;;;23.00;58.40;;;;;;1563473;74;1467;-68
2023/05/11 04:17:19;;;;;;;;;;;23.00;58.40;;;;;;1559638;74;736;-66
2023/05/11 04:19:21;;;;;;;;;;;23.00;58.40;;;;;;1568074;76;1173;-68
2023/05/11 04:21:23;;;;;;;;;;;22.80;58.30;;;;;;1558600;74;1920;-68
2023/05/11 04:23:25;;;;;;;;;;;22.90;58.50;;;;;;1563240;74;1017;-67
2023/05/11 04:25:27;;;;;;;;;;;22.90;58.60;;;;;;1562140;74;712;-68
2023/05/11 04:27:31;;;;;;;;;;;22.90;58.70;;;;;;1558554;74;702;-67
2023/05/11 04:29:32;;;;;;;;;;;22.80;58.50;;;;;;1558061;76;1454;-68
2023/05/11 04:31:34;;;;;;;;;;;22.80;58.60;;;;;;1565878;74;710;-68
2023/05/11 04:33:36;;;;;;;;;;;22.80;59.00;;;;;;1565764;74;701;-69
2023/05/11 04:35:41;;;;;;;;;;;22.80;59.00;;;;;;1557992;74;657;-68
2023/05/11 04:37:43;;;;;;;;;;;22.90;59.40;;;;;;1575348;74;720;-70
2023/05/11 04:39:45;;;;;;;;;;;22.80;59.20;;;;;;1568241;74;1177;-65
2023/05/11 04:41:47;;;;;;;;;;;22.80;59.30;;;;;;1568937;74;688;-70
2023/05/11 04:43:49;;;;;;;;;;;22.80;59.10;;;;;;1571465;74;1427;-69
2023/05/11 04:45:50;;;;;;;;;;;22.90;59.20;;;;;;1554506;74;725;-68
2023/05/11 04:47:52;;;;;;;;;;;22.80;59.10;;;;;;1564819;74;711;-70
2023/05/11 04:49:54;;;;;;;;;;;22.90;59.30;;;;;;1561522;75;1189;-67
2023/05/11 04:51:56;;;;;;;;;;;22.90;59.10;;;;;;1567909;74;741;-64
2023/05/11 04:53:58;;;;;;;;;;;22.90;59.30;;;;;;1564619;74;1112;-65
2023/05/11 04:56:00;;;;;;;;;;;22.90;59.40;;;;;;1566276;74;688;-66
2023/05/11 04:58:02;;;;;;;;;;;22.90;59.40;;;;;;1571172;74;1495;-66
2023/05/11 05:00:05;;;;;;;;;;;22.90;59.10;;;;;;1560753;74;1942;-64
2023/05/11 05:02:07;;;;;;;;;;;22.90;58.70;;;;;;1570853;74;771;-67
2023/05/11 05:04:09;;;;;;;;;;;22.90;58.50;;;;;;1562453;74;795;-66
2023/05/11 05:06:11;;;;;;;;;;;22.90;58.30;;;;;;1566030;74;806;-69
2023/05/11 05:08:13;;;;;;;;;;;22.90;58.10;;;;;;1568368;74;789;-71
2023/05/11 05:10:15;;;;;;;;;;;22.90;58.00;;;;;;1561505;74;1461;-67
2023/05/11 05:12:17;;;;;;;;;;;22.90;57.60;;;;;;1557818;74;722;-68
2023/05/11 05:14:19;;;;;;;;;;;22.80;57.40;;;;;;1537494;76;689;-66
2023/05/11 05:16:20;;;;;;;;;;;22.90;57.40;;;;;;1562361;76;818;-66
2023/05/11 05:18:22;;;;;;;;;;;22.90;57.30;;;;;;1565126;75;783;-66
2023/05/11 05:20:24;;;;;;;;;;;22.90;57.20;;;;;;1560705;74;1938;-66
2023/05/11 05:22:26;;;;;;;;;;;22.90;57.10;;;;;;1561323;75;804;-65
2023/05/11 05:24:28;;;;;;;;;;;22.80;56.80;;;;;;1564880;74;1452;-66
2023/05/11 05:26:30;;;;;;;;;;;23.00;56.80;;;;;;1553136;74;809;-65
2023/05/11 05:28:34;;;;;;;;;;;22.90;56.70;;;;;;1560818;75;756;-65
2023/05/11 05:30:36;;;;;;;;;;;22.90;56.50;;;;;;1552301;75;1629;-64
2023/05/11 05:32:37;;;;;;;;;;;22.90;56.50;;;;;;1567505;74;768;-65
2023/05/11 05:34:39;;;;;;;;;;;22.90;56.70;;;;;;1560509;76;762;-63
2023/05/11 05:36:41;;;;;;;;;;;22.90;56.80;;;;;;1565424;74;796;-61
2023/05/11 05:38:43;;;;;;;;;;;22.90;57.00;;;;;;1567645;74;1285;-65
2023/05/11 05:40:45;;;;;;;;;;;22.90;56.90;;;;;;1562987;75;1941;-63
2023/05/11 05:42:47;;;;;;;;;;;22.80;56.80;;;;;;1565060;75;752;-63
2023/05/11 05:44:50;;;;;;;;;;;22.90;56.80;;;;;;1557876;76;784;-62
2023/05/11 05:46:52;;;;;;;;;;;22.90;56.70;;;;;;1555225;74;742;-65
2023/05/11 05:48:54;;;;;;;;;;;22.90;56.50;;;;;;1554935;74;791;-66
2023/05/11 05:50:56;;;;;;;;;;;22.90;56.50;;;;;;1566596;75;1235;-61
2023/05/11 05:52:58;;;;;;;;;;;22.80;56.30;;;;;;1561086;74;1430;-63
2023/05/11 05:55:00;;;;;;;;;;;22.90;56.40;;;;;;1555555;76;778;-69
2023/05/11 05:57:02;;;;;;;;;;;22.90;56.30;;;;;;1563906;74;762;-64
2023/05/11 05:59:04;;;;;;;;;;;22.90;56.20;;;;;;1563111;76;1140;-63
2023/05/11 06:01:06;;;;;;;;;;;22.90;56.20;;;;;;1569503;76;1938;-64
2023/05/11 06:03:07;;;;;;;;;;;22.90;56.10;;;;;;1559919;75;803;-63
2023/05/11 06:05:09;;;;;;;;;;;22.90;56.10;;;;;;1568047;76;757;-61
2023/05/11 06:07:13;;;;;;;;;;;22.90;56.10;;;;;;1566235;74;1422;-64
2023/05/11 06:09:14;;;;;;;;;;;22.80;56.00;;;;;;1554499;74;1234;-61
2023/05/11 06:11:16;;;;;;;;;;;22.70;56.10;;;;;;1565208;76;708;-63
2023/05/11 06:13:18;;;;;;;;;;;22.70;56.20;;;;;;1563060;76;775;-63
2023/05/11 06:15:20;;;;;;;;;;;22.70;56.20;;;;;;1563388;74;799;-67
2023/05/11 06:17:22;;;;;;;;;;;22.70;56.20;;;;;;1571007;74;776;-69
2023/05/11 06:19:24;;;;;;;;;;;22.70;55.80;;;;;;1564207;74;1154;-69
2023/05/11 06:21:26;;;;;;;;;;;22.70;55.10;;;;;;1564691;76;1935;-67
2023/05/11 06:23:28;;;;;;;;;;;22.60;54.60;;;;;;1569333;74;765;-67
2023/05/11 06:25:30;;;;;;;;;;;22.60;54.30;;;;;;1559638;74;789;-66
2023/05/11 06:27:32;;;;;;;;;;;22.50;53.80;;;;;;1569345;74;781;-67
2023/05/11 06:29:34;;;;;;;;;;;22.50;53.40;;;;;;1572408;74;1172;-68
2023/05/11 06:31:36;;;;;;;;;;;22.50;53.40;;;;;;1567129;74;769;-67
2023/05/11 06:33:38;;;;;;;;;;;22.50;53.10;;;;;;1566757;74;791;-65
2023/05/11 06:35:40;;;;;;;;;;;22.50;52.60;;;;;;1559287;75;1417;-67
2023/05/11 06:37:41;;;;;;;;;;;22.50;52.30;;;;;;1559112;75;766;-70
2023/05/11 06:39:43;;;;;;;;;;;22.50;52.30;;;;;;1550353;75;1181;-68
2023/05/11 06:41:45;;;;;;;;;;;22.40;51.70;;;;;;1564752;74;1944;-67
2023/05/11 06:43:47;;;;;;;;;;;22.40;51.40;;;;;;1562140;74;783;-67
2023/05/11 06:45:49;;;;;;;;;;;22.40;51.30;;;;;;1563537;74;752;-66
2023/05/11 06:47:51;;;;;;;;;;;22.40;51.00;;;;;;1559710;74;769;-67
2023/05/11 06:49:53;;;;;;;;;;;22.40;50.90;;;;;;1567225;76;1457;-68
2023/05/11 06:51:55;;;;;;;;;;;22.40;50.70;;;;;;1548422;74;814;-68
2023/05/11 06:53:57;;;;;;;;;;;22.40;50.50;;;;;;1556129;75;776;-67
2023/05/11 06:55:59;;;;;;;;;;;22.40;50.40;;;;;;1554612;74;771;-69
2023/05/11 06:58:00;;;;;;;;;;;22.30;50.00;;;;;;1568944;75;784;-66
2023/05/11 07:00:02;;;;;;;;;;;22.30;50.00;;;;;;1558646;75;1161;-67
2023/05/11 07:02:04;;;;;;;;;;;22.30;50.00;;;;;;1575344;74;1942;-67
2023/05/11 07:04:06;;;;;;;;;;;22.30;49.70;;;;;;1568167;76;1438;-66
2023/05/11 07:06:08;;;;;;;;;;;22.30;49.70;;;;;;1559348;74;653;-67
2023/05/11 07:08:10;;;;;;;;;;;22.30;49.20;;;;;;1559975;75;667;-67
2023/05/11 07:10:12;;;;;;;;;;;22.40;49.20;;;;;;1558522;75;1215;-69
2023/05/11 07:12:14;;;;;;;;;;;22.40;49.30;;;;;;1569012;76;775;-68
2023/05/11 07:14:16;;;;;;;;;;;22.20;49.20;;;;;;1560724;74;763;-67
2023/05/11 07:16:17;;;;;;;;;;;22.30;48.90;;;;;;1566972;75;743;-67
2023/05/11 07:18:19;;;;;;;;;;;22.20;48.90;;;;;;1568081;74;1525;-66
2023/05/11 07:20:21;;;;;;;;;;;22.30;48.70;;;;;;1562835;75;1162;-67
2023/05/11 07:22:23;;;;;;;;;;;22.30;48.90;;;;;;1568837;74;1942;-68
2023/05/11 07:24:25;;;;;;;;;;;22.20;48.50;;;;;;1557650;76;761;-68
2023/05/11 07:26:27;;;;;;;;;;;22.20;48.40;;;;;;1567998;76;745;-68
2023/05/11 07:28:29;;;;;;;;;;;22.20;48.30;;;;;;1569465;76;781;-67
2023/05/11 07:30:30;;;;;;;;;;;22.20;48.30;;;;;;1549271;74;1173;-67
2023/05/11 07:32:32;;;;;;;;;;;22.20;48.10;;;;;;1573314;74;1461;-67
2023/05/11 07:34:34;;;;;;;;;;;22.20;48.00;;;;;;1564333;74;729;-67
2023/05/11 07:36:36;;;;;;;;;;;22.20;47.90;;;;;;1568145;74;659;-67
2023/05/11 07:38:38;;;;;;;;;;;22.20;48.10;;;;;;1565095;74;812;-67
2023/05/11 07:40:40;;;;;;;;;;;22.20;47.90;;;;;;1567629;74;1117;-67
2023/05/11 07:42:42;;;;;;;;;;;22.20;47.80;;;;;;1562989;74;1947;-65
2023/05/11 07:44:43;;;;;;;;;;;22.20;47.80;;;;;;1547872;74;775;-67
2023/05/11 07:46:45;;;;;;;;;;;22.20;47.60;;;;;;1552113;75;1471;-67
2023/05/11 07:48:47;;;;;;;;;;;22.20;47.60;;;;;;1565237;74;780;-67
2023/05/11 07:50:49;;;;;;;;;;;22.10;47.40;;;;;;1565790;76;1172;-69
2023/05/11 07:52:51;;;;;;;;;;;22.10;47.60;;;;;;1563350;74;786;-67
2023/05/11 07:54:53;;;;;;;;;;;22.10;47.50;;;;;;1567352;75;776;-66
2023/05/11 07:56:55;;;;;;;;;;;22.10;47.50;;;;;;1565975;74;807;-67
2023/05/11 07:58:57;;;;;;;;;;;22.10;47.30;;;;;;1565634;74;1405;-65
2023/05/11 08:00:58;;;;;;;;;;;22.10;47.30;;;;;;1567127;75;763;-67
2023/05/11 08:03:00;;;;;;;;;;;22.10;47.10;;;;;;1568587;74;1922;-67
2023/05/11 08:05:03;;;;;;;;;;;22.10;47.30;;;;;;1564550;76;772;-68
2023/05/11 08:07:05;;;;;;;;;;;22.10;47.30;;;;;;1557076;75;763;-68
2023/05/11 08:09:06;;;;;;;;;;;22.10;47.10;;;;;;1569578;76;1157;-69
2023/05/11 08:11:09;;;;;;;;;;;22.10;46.90;;;;;;1565139;74;776;-67
2023/05/11 08:13:10;;;;;;;;;;;22.10;47.00;;;;;;1562282;76;1430;-66
2023/05/11 08:15:12;;;;;;;;;;;22.10;47.00;;;;;;1568870;74;711;-66
2023/05/11 08:17:14;;;;;;;;;;;22.00;46.90;;;;;;1554943;74;764;-67
2023/05/11 08:19:16;;;;;;;;;;;22.10;47.00;;;;;;1566249;74;1227;-68
2023/05/11 08:21:18;;;;;;;;;;;22.10;46.80;;;;;;1568127;76;1942;-67
2023/05/11 08:23:20;;;;;;;;;;;22.10;46.70;;;;;;1555468;74;774;-68
2023/05/11 08:25:22;;;;;;;;;;;22.10;46.70;;;;;;1558649;76;772;-66
2023/05/11 08:27:23;;;;;;;;;;;22.10;46.80;;;;;;1569313;75;1378;-66
2023/05/11 08:29:26;;;;;;;;;;;22.10;46.70;;;;;;1562089;75;1155;-67
2023/05/11 08:31:28;;;;;;;;;;;22.10;46.70;;;;;;1555227;74;863;-67
2023/05/11 08:33:30;;;;;;;;;;;22.10;46.60;;;;;;1564527;74;773;-68
2023/05/11 08:35:32;;;;;;;;;;;22.10;46.60;;;;;;1563849;76;760;-67
2023/05/11 08:37:33;;;;;;;;;;;22.10;46.50;;;;;;1561032;75;768;-67
2023/05/11 08:39:36;;;;;;;;;;;22.10;46.60;;;;;;1564424;74;1183;-68
2023/05/11 08:41:38;;;;;;;;;;;22.00;46.50;;;;;;1559537;74;1935;-67
2023/05/11 08:43:40;;;;;;;;;;;22.00;46.40;;;;;;1553292;76;766;-68
2023/05/11 08:45:43;;;;;;;;;;;22.00;46.40;;;;;;1558427;74;777;-67
2023/05/11 08:47:45;;;;;;;;;;;22.00;46.40;;;;;;1528889;76;753;-66
2023/05/11 08:49:47;;;;;;;;;;;22.00;46.50;;;;;;1569321;74;1161;-67
2023/05/11 08:51:49;;;;;;;;;;;22.00;46.30;;;;;;1540060;74;679;-69
2023/05/11 08:53:51;;;;;;;;;;;22.10;46.40;;;;;;1548021;75;662;-62
2023/05/11 08:55:54;;;;;;;;;;;22.00;46.10;;;;;;1565174;76;1450;-62
2023/05/11 08:57:57;;;;;;;;;;;22.00;47.50;;;;;;1559734;74;801;-63
2023/05/11 08:59:59;;;;;;;;;;;22.00;48.30;;;;;;1564213;74;1169;-62
2023/05/11 09:02:01;;;;;;;;;;;22.00;49.10;;;;;;1561698;75;1951;-63
2023/05/11 09:04:04;;;;;;;;;;;22.00;49.80;;;;;;1562820;74;1079;-62
2023/05/11 09:06:06;;;;;;;;;;;21.90;50.60;;;;;;1556247;74;1370;-63
2023/05/11 09:08:08;;;;;;;;;;;21.90;50.70;;;;;;1561299;74;1396;-63
2023/05/11 09:10:10;;;;;;;;;;;21.90;51.00;;;;;;1555374;75;1368;-63
2023/05/11 09:12:12;;;;;;;;;;;21.90;51.20;;;;;;1561667;75;1369;-64
2023/05/11 09:14:14;;;;;;;;;;;22.00;51.30;;;;;;1559721;75;1215;-63
2023/05/11 09:16:15;;;;;;;;;;;21.90;51.60;;;;;;1572047;74;1281;-62
2023/05/11 09:18:17;;;;;;;;;;;22.00;51.50;;;;;;1557805;74;1380;-63
2023/05/11 09:20:21;;;;;;;;;;;21.90;51.70;;;;;;1559723;74;1410;-63
2023/05/11 09:22:23;;;;;;;;;;;22.00;51.60;;;;;;1557219;75;1953;-60
2023/05/11 09:24:24;;;;;;;;;;;22.00;51.70;;;;;;1560265;75;1585;-64
2023/05/11 09:26:30;;;;;;;;;;;22.00;51.80;;;;;;1558900;75;1396;-62
2023/05/11 09:28:32;;;;;;;;;;;22.00;51.70;;;;;;1557567;75;1137;-62
2023/05/11 09:30:34;;;;;;;;;;;22.00;51.80;;;;;;1557691;75;1738;-60
2023/05/11 09:32:54;;;;;;;;;;;22.00;51.90;;;;;;1567253;75;1377;-63
2023/05/11 09:34:56;;;;;;;;;;;22.00;51.80;;;;;;1563248;74;1011;-62
2023/05/11 09:36:58;;;;;;;;;;;22.00;52.00;;;;;;1559670;74;1257;-63
2023/05/11 09:39:03;;;;;;;;;;;22.00;51.80;;;;;;1565013;74;1356;-61
2023/05/11 09:41:07;;;;;;;;;;;22.10;52.00;;;;;;1562905;74;820;-62
2023/05/11 09:43:10;;;;;;;;;;;22.00;51.90;;;;;;1561141;74;1955;-63
2023/05/11 09:45:12;;;;;;;;;;;22.10;52.30;;;;;;1545099;74;1028;-65
2023/05/11 09:47:15;;;;;;;;;;;22.10;52.20;;;;;;1565587;75;785;-61
2023/05/11 09:49:17;;;;;;;;;;;22.10;52.30;;;;;;1568936;74;1178;-63
2023/05/11 09:51:20;;;;;;;;;;;22.10;52.30;;;;;;1553823;75;745;-64
2023/05/11 09:53:24;;;;;;;;;;;22.10;52.50;;;;;;1532692;76;1488;-63
2023/05/11 09:55:26;;;;;;;;;;;22.10;52.50;;;;;;1531422;76;759;-63
2023/05/11 09:57:29;;;;;;;;;;;22.20;52.30;;;;;;1561064;76;734;-63
2023/05/11 09:59:40;;;;;;;;;;;22.20;52.40;;;;;;1561018;74;1150;-62
2023/05/11 10:01:42;;;;;;;;;;;22.20;52.50;;;;;;1566564;74;809;-64
2023/05/11 10:03:47;;;;;;;;;;;22.20;52.40;;;;;;1560837;74;1943;-64
2023/05/11 10:05:56;;;;;;;;;;;22.20;52.50;;;;;;1568931;75;1384;-63
2023/05/11 10:08:02;;;;;;;;;;;22.20;52.50;;;;;;1563566;74;913;-64
2023/05/11 10:10:07;;;;;;;;;;;22.20;52.50;;;;;;1564059;75;1169;-63
2023/05/11 10:12:09;;;;;;;;;;;22.20;52.50;;;;;;1562137;74;775;-63
2023/05/11 10:14:15;;;;;;;;;;;22.20;52.60;;;;;;1567528;74;710;-63
2023/05/11 10:16:16;;;;;;;;;;;22.20;52.40;;;;;;1559497;76;778;-64
2023/05/11 10:18:18;;;;;;;;;;;22.20;52.50;;;;;;1565585;74;763;-63
2023/05/11 10:20:20;;;;;;;;;;;22.20;52.50;;;;;;1568869;75;1518;-63
2023/05/11 10:22:23;;;;;;;;;;;22.20;52.60;;;;;;1555845;74;1930;-63
2023/05/11 10:24:25;;;;;;;;;;;22.30;52.60;;;;;;1553944;74;772;-63
2023/05/11 10:26:27;;;;;;;;;;;22.30;52.70;;;;;;1561956;74;765;-63
2023/05/11 10:28:29;;;;;;;;;;;22.40;52.70;;;;;;1553576;75;746;-63
2023/05/11 10:30:31;;;;;;;;;;;22.30;52.60;;;;;;1557360;74;1177;-63
2023/05/11 10:32:33;;;;;;;;;;;22.40;52.80;;;;;;1562650;74;767;-62
2023/05/11 10:34:36;;;;;;;;;;;22.30;52.80;;;;;;1569721;75;1433;-64
2023/05/11 10:36:38;;;;;;;;;;;22.30;52.70;;;;;;1566816;75;781;-65
2023/05/11 10:38:40;;;;;;;;;;;22.30;52.70;;;;;;1562856;74;449;-64
2023/05/11 10:40:42;;;;;;;;;;;22.40;52.70;;;;;;1548595;75;1161;-64
2023/05/11 10:42:58;;;;;;;;;;;22.30;52.80;;;;;;1570988;74;1942;-64
2023/05/11 10:45:10;;;;;;;;;;;22.40;52.70;;;;;;1567655;76;1490;-63
2023/05/11 10:47:22;;;;;;;;;;;22.30;52.70;;;;;;1570887;74;748;-63
2023/05/11 10:49:26;;;;;;;;;;;22.40;52.70;;;;;;1565942;74;1610;-64
2023/05/11 10:51:48;;;;;;;;;;;22.30;52.80;;;;;;1566889;74;796;-63
2023/05/11 10:54:07;;;;;;;;;;;22.30;52.80;;;;;;1506878;77;1009;-64
2023/05/11 10:56:27;;;;;;;;;;;22.30;52.80;;;;;;1505589;77;822;-64
2023/05/11 10:58:47;;;;;;;;;;;22.40;52.80;;;;;;1506679;77;836;-64
2023/05/11 11:00:56;;;;;;;;;;;22.30;52.80;;;;;;1556595;76;1126;-64
2023/05/11 11:02:58;;;;;;;;;;;22.30;52.70;;;;;;1558107;76;1939;-62
2023/05/11 11:05:04;;;;;;;;;;;22.40;52.80;;;;;;1569752;74;801;-64
2023/05/11 11:07:04;;;;;;;;;;;22.40;52.70;;;;;;1561633;74;1688;-64
2023/05/11 11:09:07;;;;;;;;;;;22.40;52.80;;;;;;1569565;76;1172;-63
2023/05/11 11:11:17;;;;;;;;;;;22.40;52.80;;;;;;1562918;74;782;-61
2023/05/11 11:13:23;;;;;;;;;;;22.40;52.80;;;;;;1548392;74;929;-64
2023/05/11 11:15:25;;;;;;;;;;;22.40;52.90;;;;;;1561157;74;511;-64
2023/05/11 11:17:30;;;;;;;;;;;22.40;52.80;;;;;;1564859;74;1434;-60
2023/05/11 11:19:33;;;;;;;;;;;22.40;52.80;;;;;;1555246;76;1588;-64
2023/05/11 11:21:41;;;;;;;;;;;22.40;52.90;;;;;;1563222;74;783;-64
2023/05/11 11:23:44;;;;;;;;;;;22.40;52.80;;;;;;1554671;75;1929;-62
2023/05/11 11:25:52;;;;;;;;;;;22.40;52.80;;;;;;1564426;75;771;-64
2023/05/11 11:27:55;;;;;;;;;;;22.40;52.90;;;;;;1569012;74;799;-64
2023/05/11 11:30:07;;;;;;;;;;;22.40;52.90;;;;;;1563916;74;1435;-60
2023/05/11 11:32:23;;;;;;;;;;;22.40;52.90;;;;;;1551294;75;1015;-64
2023/05/11 11:34:31;;;;;;;;;;;22.50;53.10;;;;;;1567695;75;803;-63
2023/05/11 11:36:50;;;;;;;;;;;22.40;52.80;;;;;;1561664;76;748;-64
2023/05/11 11:38:59;;;;;;;;;;;22.40;52.80;;;;;;1560634;75;526;-64
2023/05/11 11:41:00;;;;;;;;;;;22.40;52.90;;;;;;1550582;76;787;-64
2023/05/11 11:43:16;;;;;;;;;;;22.40;52.90;;;;;;1567763;74;1942;-64
2023/05/11 11:45:27;;;;;;;;;;;22.50;53.00;;;;;;1566088;74;1588;-61
2023/05/11 11:47:29;;;;;;;;;;;22.50;53.00;;;;;;1567756;75;763;-63
2023/05/11 11:49:31;;;;;;;;;;;22.50;53.00;;;;;;1563723;75;1169;-61
2023/05/11 11:51:33;;;;;;;;;;;22.50;53.10;;;;;;1565875;74;677;-62
2023/05/11 11:53:39;;;;;;;;;;;22.40;52.90;;;;;;1564646;75;766;-63
2023/05/11 11:55:48;;;;;;;;;;;22.50;53.10;;;;;;1563759;74;762;-63
2023/05/11 11:57:51;;;;;;;;;;;22.50;53.00;;;;;;1566407;76;786;-64
2023/05/11 11:59:52;;;;;;;;;;;22.50;53.00;;;;;;1566268;76;1470;-65
2023/05/11 12:01:55;;;;;;;;;;;22.50;53.10;;;;;;1558353;74;799;-63
2023/05/11 12:04:16;;;;;;;;;;;22.50;53.10;;;;;;1559722;75;1946;-64
2023/05/11 12:06:17;;;;;;;;;;;22.50;53.10;;;;;;1563927;74;765;-63
2023/05/11 12:08:19;;;;;;;;;;;22.50;53.10;;;;;;1562218;75;760;-64
2023/05/11 12:10:21;;;;;;;;;;;22.50;53.10;;;;;;1569371;74;1176;-64
2023/05/11 12:12:23;;;;;;;;;;;22.40;53.00;;;;;;1569579;74;1401;-64
2023/05/11 12:14:25;;;;;;;;;;;22.50;53.10;;;;;;1557120;75;833;-64